createdAt,value
2017-08-15T00:00:02.808Z,73.56
2017-08-15T00:05:03.323Z,72.99
2017-08-15T00:10:02.903Z,72.41
2017-08-15T00:15:03.642Z,71.7
2017-08-15T00:20:03.098Z,71.12
2017-08-15T00:25:03.760Z,70.74
2017-08-15T00:30:03.463Z,70.17
2017-08-15T00:35:02.921Z,69.68
2017-08-15T00:40:03.529Z,69.11
2017-08-15T00:45:03.023Z,68.73
2017-08-15T00:50:03.635Z,68.34
2017-08-15T00:55:03.226Z,68.05
2017-08-15T01:00:03.794Z,67.47
2017-08-15T01:05:03.331Z,67.19
2017-08-15T01:10:02.938Z,66.77
2017-08-15T01:15:03.545Z,66.58
2017-08-15T01:20:03.010Z,66.1
2017-08-15T01:25:03.531Z,65.81
2017-08-15T01:30:03.221Z,65.33
2017-08-15T01:35:03.617Z,64.95
2017-08-15T01:40:03.064Z,64.95
2017-08-15T01:45:03.489Z,64.56
2017-08-15T01:50:03.220Z,64.18
2017-08-15T01:55:02.767Z,64.09
2017-08-15T02:00:03.290Z,63.79
2017-08-15T02:05:03.710Z,63.48
2017-08-15T02:10:03.323Z,63.19
2017-08-15T02:15:02.780Z,62.9
2017-08-15T02:20:03.257Z,62.62
2017-08-15T02:25:03.711Z,62.52
2017-08-15T02:30:03.408Z,62.33
2017-08-15T02:35:02.876Z,62.04
2017-08-15T02:40:03.342Z,61.94
2017-08-15T02:45:02.988Z,61.91
2017-08-15T02:50:03.546Z,61.72
2017-08-15T02:55:03.223Z,61.72
2017-08-15T03:00:03.653Z,61.63
2017-08-15T03:05:03.230Z,61.53
2017-08-15T03:10:02.767Z,61.24
2017-08-15T03:15:03.831Z,61.15
2017-08-15T03:20:03.331Z,60.93
2017-08-15T03:25:02.697Z,60.93
2017-08-15T03:30:03.438Z,60.83
2017-08-15T03:35:02.891Z,60.54
2017-08-15T03:40:03.562Z,60.54
2017-08-15T03:45:03.004Z,60.44
2017-08-15T03:50:03.436Z,60.44
2017-08-15T03:55:02.960Z,60.35
2017-08-15T04:00:03.531Z,60.25
2017-08-15T04:05:03.194Z,60.25
2017-08-15T04:10:03.453Z,60.16
2017-08-15T04:15:03.515Z,60.06
2017-08-15T04:20:03.553Z,60.06
2017-08-15T04:25:03.601Z,59.87
2017-08-15T04:30:03.646Z,59.77
2017-08-15T04:35:03.467Z,59.77
2017-08-15T04:40:03.623Z,59.68
2017-08-15T04:45:03.649Z,59.58
2017-08-15T04:50:03.777Z,59.48
2017-08-15T04:55:03.881Z,59.48
2017-08-15T05:00:03.885Z,59.39
2017-08-15T05:05:03.913Z,59.2
2017-08-15T05:10:03.017Z,59.04
2017-08-15T05:15:03.147Z,58.75
2017-08-15T05:20:03.319Z,58.56
2017-08-15T05:25:03.362Z,58.3
2017-08-15T05:30:03.580Z,58.33
2017-08-15T05:35:03.465Z,58.42
2017-08-15T05:40:02.917Z,58.55
2017-08-15T05:45:03.345Z,59.25
2017-08-15T05:50:02.820Z,60.02
2017-08-15T05:55:03.292Z,60.6
2017-08-15T06:00:02.716Z,60.63
2017-08-15T06:05:03.134Z,61.11
2017-08-15T06:10:02.772Z,62.58
2017-08-15T06:15:03.173Z,64.34
2017-08-15T06:20:02.690Z,66.3
2017-08-15T06:25:03.244Z,66.97
2017-08-15T06:30:02.755Z,69.73
2017-08-15T06:35:03.340Z,72.75
2017-08-15T06:40:02.811Z,74.37
2017-08-15T06:45:03.220Z,77.59
2017-08-15T06:50:02.757Z,79.24
2017-08-15T06:55:03.292Z,81.16
2017-08-15T07:00:03.678Z,81.26
2017-08-15T07:05:03.241Z,80.74
2017-08-15T07:10:02.709Z,80.26
2017-08-15T07:15:03.167Z,79.49
2017-08-15T07:20:02.775Z,79.87
2017-08-15T07:25:03.286Z,78.91
2017-08-15T07:30:03.736Z,78.09
2017-08-15T07:35:03.329Z,78.13
2017-08-15T07:40:02.794Z,76.59
2017-08-15T07:45:03.332Z,78.17
2017-08-15T07:50:02.728Z,80
2017-08-15T07:55:03.104Z,83.39
2017-08-15T08:00:03.596Z,84.25
2017-08-15T08:05:03.039Z,83
2017-08-15T08:10:03.628Z,84.16
2017-08-15T08:15:03.215Z,82.57
2017-08-15T08:20:03.689Z,81.9
2017-08-15T08:25:03.173Z,80.93
2017-08-15T08:30:03.581Z,81.12
2017-08-15T08:35:02.981Z,80.35
2017-08-15T08:40:03.626Z,81.9
2017-08-15T08:45:03.176Z,82.71
2017-08-15T08:50:03.673Z,82.9
2017-08-15T08:55:03.132Z,84.93
2017-08-15T09:00:03.683Z,85.22
2017-08-15T09:05:03.124Z,84.64
2017-08-15T09:10:03.679Z,85.12
2017-08-15T09:15:03.271Z,84.35
2017-08-15T09:20:02.733Z,84.16
2017-08-15T09:25:03.214Z,83.44
2017-08-15T09:30:02.778Z,82.67
2017-08-15T09:35:03.369Z,82.09
2017-08-15T09:40:02.999Z,81.22
2017-08-15T09:45:03.604Z,79.87
2017-08-15T09:50:03.138Z,79
2017-08-15T09:55:03.712Z,79.19
2017-08-15T10:00:03.216Z,78.56
2017-08-15T10:05:03.595Z,76.92
2017-08-15T10:10:03.141Z,77.21
2017-08-15T10:15:02.716Z,77.88
2017-08-15T10:20:03.204Z,78.17
2017-08-15T10:25:03.606Z,77.59
2017-08-15T10:30:03.138Z,77.83
2017-08-15T10:35:03.565Z,77.57
2017-08-15T10:40:03.028Z,78.25
2017-08-15T10:45:03.462Z,80.9
2017-08-15T10:50:02.927Z,83.2
2017-08-15T10:55:03.358Z,84.94
2017-08-15T11:00:02.823Z,85.24
2017-08-15T11:05:03.403Z,87.6
2017-08-15T11:10:02.856Z,90.83
2017-08-15T11:15:03.379Z,96.21
2017-08-15T11:20:02.857Z,99.46
2017-08-15T11:25:03.308Z,99.99
2017-08-15T11:30:03.712Z,99.99
2017-08-15T11:35:03.219Z,99.99
2017-08-15T11:40:03.699Z,99.99
2017-08-15T11:45:03.200Z,99.99
2017-08-15T11:50:02.756Z,99.99
2017-08-15T11:55:03.352Z,99.99
2017-08-15T12:00:02.793Z,96.77
2017-08-15T12:05:03.341Z,93.39
2017-08-15T12:10:03.259Z,88.65
2017-08-15T12:15:03.689Z,76.77
2017-08-15T12:20:03.334Z,73.35
2017-08-15T12:25:02.873Z,76.03
2017-08-15T12:30:03.454Z,79.51
2017-08-15T12:35:02.935Z,75.79
2017-08-15T12:40:03.529Z,78.27
2017-08-15T12:45:03.077Z,83.47
2017-08-15T12:50:03.656Z,89.45
2017-08-15T12:55:03.310Z,95.92
2017-08-15T13:00:02.739Z,96.98
2017-08-15T13:05:03.294Z,96.3
2017-08-15T13:10:02.833Z,94.64
2017-08-15T13:15:03.299Z,91.04
2017-08-15T13:20:02.784Z,94.49
2017-08-15T13:25:03.202Z,90.85
2017-08-15T13:30:02.838Z,93.63
2017-08-15T13:35:03.392Z,95.23
2017-08-15T13:40:02.938Z,98.88
2017-08-15T13:45:03.509Z,99.99
2017-08-15T13:50:03.050Z,99.99
2017-08-15T13:55:03.568Z,99.99
2017-08-15T14:00:03.033Z,99.99
2017-08-15T14:05:03.438Z,99.99
2017-08-15T14:10:02.893Z,99.99
2017-08-15T14:15:03.458Z,99.99
2017-08-15T14:20:02.938Z,99.99
2017-08-15T14:25:03.484Z,99.99
2017-08-15T14:30:03.015Z,99.99
2017-08-15T14:35:03.615Z,99.99
2017-08-15T14:40:03.206Z,99.99
2017-08-15T14:45:03.713Z,99.99
2017-08-15T14:50:03.111Z,99.99
2017-08-15T14:55:03.664Z,99.99
2017-08-15T15:00:03.113Z,99.99
2017-08-15T15:05:03.594Z,99.99
2017-08-15T15:10:03.196Z,98.83
2017-08-15T15:15:03.678Z,98.83
2017-08-15T15:20:03.135Z,97.52
2017-08-15T15:25:03.579Z,96.36
2017-08-15T15:30:03.213Z,95.1
2017-08-15T15:40:03.179Z,89.7
2017-08-15T15:45:03.629Z,86.32
2017-08-15T15:50:03.152Z,82.61
2017-08-15T15:55:02.698Z,84.74
2017-08-15T16:00:03.180Z,83.96
2017-08-15T16:05:03.698Z,83.39
2017-08-15T16:10:03.189Z,83.09
2017-08-15T16:15:02.802Z,81.84
2017-08-15T16:20:03.426Z,81.26
2017-08-15T16:25:02.869Z,80.68
2017-08-15T16:30:03.319Z,80.87
2017-08-15T16:35:02.759Z,81.07
2017-08-15T16:40:03.290Z,81.45
2017-08-15T16:45:02.768Z,80.97
2017-08-15T16:50:03.401Z,79.33
2017-08-15T16:55:02.930Z,78.71
2017-08-15T17:00:03.391Z,77.36
2017-08-15T17:05:02.947Z,76.88
2017-08-15T17:10:03.539Z,74.91
2017-08-15T17:15:02.953Z,73.57
2017-08-15T17:20:03.599Z,72.37
2017-08-15T17:25:03.011Z,72.08
2017-08-15T17:30:03.603Z,70.73
2017-08-15T17:35:03.143Z,69.67
2017-08-15T17:40:03.684Z,69.38
2017-08-15T17:45:03.107Z,68.99
2017-08-15T17:50:03.571Z,68.9
2017-08-15T17:55:03.039Z,68.71
2017-08-15T18:05:03.241Z,67.52
2017-08-15T18:10:02.748Z,67.13
2017-08-15T18:15:03.318Z,66.55
2017-08-15T18:20:02.798Z,68.48
2017-08-15T18:25:03.227Z,69.35
2017-08-15T18:30:02.804Z,70.02
2017-08-15T18:35:03.261Z,69.83
2017-08-15T18:40:02.854Z,70.02
2017-08-15T18:45:03.264Z,70.41
2017-08-15T18:50:02.818Z,70.5
2017-08-15T18:55:03.363Z,69.7
2017-08-15T19:00:02.899Z,68.44
2017-08-15T19:05:03.479Z,67.97
2017-08-15T19:10:03.102Z,68.41
2017-08-15T19:15:03.589Z,68.6
2017-08-15T19:20:03.087Z,68.32
2017-08-15T19:25:03.484Z,67.93
2017-08-15T19:30:03.066Z,67.55
2017-08-15T19:35:03.597Z,67.45
2017-08-15T19:40:03.214Z,67.35
2017-08-15T19:45:03.661Z,67.61
2017-08-15T19:50:03.271Z,67.32
2017-08-15T19:55:03.715Z,67.13
2017-08-15T20:00:03.261Z,66.65
2017-08-15T20:05:02.869Z,66.04
2017-08-15T20:10:03.425Z,65.66
2017-08-15T20:15:02.960Z,65.46
2017-08-15T20:20:03.516Z,65.37
2017-08-15T20:25:03.032Z,65.08
2017-08-15T20:30:03.574Z,64.69
2017-08-15T20:35:03.004Z,64.5
2017-08-15T20:40:03.641Z,64.4
2017-08-15T20:45:03.103Z,64.22
2017-08-15T20:50:03.687Z,63.73
2017-08-15T20:55:03.242Z,63.35
2017-08-15T21:00:02.864Z,63.15
2017-08-15T21:05:03.326Z,62.77
2017-08-15T21:10:02.926Z,62.48
2017-08-15T21:15:03.526Z,62.19
2017-08-15T21:20:03.095Z,61.91
2017-08-15T21:25:03.678Z,61.78
2017-08-15T21:30:03.097Z,61.68
2017-08-15T21:35:03.558Z,61.2
2017-08-15T21:40:03.082Z,61.2
2017-08-15T21:45:03.480Z,61.11
2017-08-15T21:50:02.888Z,60.91
2017-08-15T21:55:03.452Z,60.72
2017-08-15T22:00:02.998Z,60.43
2017-08-15T22:05:03.544Z,60.24
2017-08-15T22:10:03.168Z,60.24
2017-08-15T22:15:02.688Z,60.05
2017-08-15T22:20:03.316Z,59.86
2017-08-15T22:25:03.681Z,59.86
2017-08-15T22:30:03.208Z,59.95
2017-08-15T22:35:03.672Z,60.05
2017-08-15T22:40:03.262Z,60.14
2017-08-15T22:45:02.819Z,60.14
2017-08-15T22:50:03.459Z,60.24
2017-08-15T22:55:02.955Z,60.24
2017-08-15T23:00:03.598Z,60.21
2017-08-15T23:05:02.887Z,60.21
2017-08-15T23:10:03.389Z,60.21
2017-08-15T23:15:02.834Z,60.21
2017-08-15T23:20:03.377Z,60.11
2017-08-15T23:25:02.918Z,60.11
2017-08-15T23:30:03.414Z,60.21
2017-08-15T23:35:03.039Z,60.18
2017-08-15T23:40:03.508Z,60.18
2017-08-15T23:45:02.901Z,60.28
2017-08-15T23:50:03.471Z,60.28
2017-08-15T23:55:03.000Z,60.28
